Time;durP1;ratioP1;P1;durP2;ratioP2;P2;SDS_P1;SDS_P2;PMS_P1;PMS_P2;Temp;Humidity;BMP_temperature;BMP_pressure;BME280_temperature;BME280_humidity;BME280_pressure;Samples;Min_cycle;Max_cycle;Signal;HPM_P1;HPM_P2
2023/03/25 00:00:52;;;;;;;0.73;0.73;;;11.40;99.90;;;;;;4988850;28;20201;-63
2023/03/25 00:03:21;;;;;;;1.30;0.98;;;11.40;99.90;;;;;;4990440;28;20236;-62
2023/03/25 00:05:47;;;;;;;0.60;0.60;;;11.40;99.90;;;;;;4992353;28;20221;-64
2023/03/25 00:08:16;;;;;;;0.70;0.70;;;11.40;99.90;;;;;;4992826;28;20548;-64
2023/03/25 00:10:42;;;;;;;0.85;0.85;;;11.30;99.90;;;;;;4991877;28;20201;-64
2023/03/25 00:13:12;;;;;;;0.60;0.60;;;11.30;99.90;;;;;;4991796;28;20202;-62
2023/03/25 00:15:44;;;;;;;0.70;0.70;;;11.30;99.90;;;;;;4990669;28;21019;-61
2023/03/25 00:18:11;;;;;;;0.70;0.70;;;11.30;99.90;;;;;;4992208;28;20202;-62
2023/03/25 00:20:39;;;;;;;0.60;0.60;;;11.30;99.90;;;;;;4988907;28;20216;-63
2023/03/25 00:23:06;;;;;;;0.70;0.70;;;11.30;99.90;;;;;;4993280;28;20198;-63
2023/03/25 00:25:35;;;;;;;0.65;0.65;;;11.30;99.90;;;;;;4993362;28;20218;-63
2023/03/25 00:28:02;;;;;;;0.60;0.60;;;11.30;99.90;;;;;;4993376;28;20293;-63
2023/03/25 00:30:29;;;;;;;0.70;0.70;;;11.30;99.90;;;;;;4993482;28;20309;-63
2023/03/25 00:33:00;;;;;;;0.43;0.43;;;11.20;99.90;;;;;;4992625;28;20224;-62
2023/03/25 00:35:27;;;;;;;0.60;0.60;;;11.30;99.90;;;;;;4993448;28;20198;-61
2023/03/25 00:37:58;;;;;;;0.85;0.85;;;11.30;99.90;;;;;;4994577;28;20206;-62
2023/03/25 00:40:27;;;;;;;0.63;0.63;;;11.30;99.90;;;;;;4993560;28;20261;-62
2023/03/25 00:42:55;;;;;;;0.90;0.90;;;11.30;99.90;;;;;;4997411;28;20605;-61
2023/03/25 00:45:24;;;;;;;0.97;0.87;;;11.20;99.90;;;;;;4993839;28;20248;-63
2023/03/25 00:47:51;;;;;;;0.50;0.50;;;11.20;99.90;;;;;;4994013;28;20213;-62
2023/03/25 00:50:17;;;;;;;0.68;0.68;;;11.20;99.90;;;;;;4993697;28;20289;-61
2023/03/25 00:52:44;;;;;;;0.60;0.60;;;11.20;99.90;;;;;;4991406;28;20213;-62
2023/03/25 00:55:11;;;;;;;0.77;0.77;;;11.20;99.90;;;;;;4993853;28;20218;-61
2023/03/25 00:57:38;;;;;;;0.60;0.60;;;11.20;99.90;;;;;;4993870;28;20202;-61
2023/03/25 01:00:10;;;;;;;0.63;0.63;;;11.10;99.90;;;;;;4993246;28;20264;-62
2023/03/25 01:02:38;;;;;;;0.70;0.70;;;11.10;99.90;;;;;;4995221;28;20216;-61
2023/03/25 01:05:06;;;;;;;0.80;0.80;;;11.10;99.90;;;;;;4992134;28;20222;-62
2023/03/25 01:07:34;;;;;;;0.70;0.70;;;11.00;99.90;;;;;;4994051;28;20198;-61
2023/03/25 01:10:01;;;;;;;0.70;0.70;;;11.00;99.90;;;;;;4993497;28;20564;-61
2023/03/25 01:12:28;;;;;;;1.27;0.80;;;11.00;99.90;;;;;;4993570;28;20213;-60
2023/03/25 01:14:55;;;;;;;0.70;0.70;;;10.90;99.90;;;;;;4993647;28;20214;-62
2023/03/25 01:17:24;;;;;;;0.70;0.70;;;11.00;99.90;;;;;;4997459;28;20217;-62
2023/03/25 01:19:51;;;;;;;0.50;0.50;;;11.00;99.90;;;;;;4997241;28;20285;-60
2023/03/25 01:22:18;;;;;;;0.70;0.70;;;11.00;99.90;;;;;;4993527;28;20204;-61
2023/03/25 01:24:45;;;;;;;0.63;0.63;;;11.00;99.90;;;;;;4991575;28;20225;-61
2023/03/25 01:27:12;;;;;;;0.70;0.70;;;11.00;99.90;;;;;;4996799;28;20212;-63
2023/03/25 01:29:39;;;;;;;0.70;0.70;;;11.20;99.90;;;;;;4994766;28;21058;-60
2023/03/25 01:32:06;;;;;;;0.50;0.50;;;11.00;99.90;;;;;;4994320;28;20206;-62
2023/03/25 01:34:37;;;;;;;0.60;0.60;;;11.00;99.90;;;;;;4994132;28;20720;-62
2023/03/25 01:37:05;;;;;;;0.68;0.68;;;11.00;99.90;;;;;;4994162;28;20213;-63
2023/03/25 01:39:32;;;;;;;0.50;0.50;;;10.90;99.90;;;;;;4994482;28;20206;-63
2023/03/25 01:41:58;;;;;;;0.68;0.68;;;10.90;99.90;;;;;;4994590;28;20210;-60
2023/03/25 01:45:02;;;;;;;0.60;0.60;;;10.90;99.90;;;;;;4994146;28;20269;-62
2023/03/25 01:47:29;;;;;;;0.80;0.80;;;10.90;99.90;;;;;;4994079;28;20214;-62
2023/03/25 01:49:57;;;;;;;0.63;0.63;;;10.90;99.90;;;;;;4993597;28;20210;-63
2023/03/25 01:52:28;;;;;;;0.70;0.70;;;10.90;99.90;;;;;;4994110;28;20210;-63
2023/03/25 01:54:56;;;;;;;0.50;0.50;;;10.90;99.90;;;;;;4994036;28;20237;-61
2023/03/25 01:57:24;;;;;;;0.65;0.65;;;10.70;99.90;;;;;;4994683;28;20213;-62
2023/03/25 01:59:54;;;;;;;0.40;0.40;;;10.50;99.90;;;;;;5009291;28;20269;-62
2023/03/25 02:02:23;;;;;;;0.40;0.40;;;10.20;99.90;;;;;;4996393;28;20589;-62
2023/03/25 02:04:57;;;;;;;0.63;0.63;;;10.10;99.90;;;;;;4993642;28;20236;-61
2023/03/25 02:07:29;;;;;;;0.50;0.50;;;10.00;99.90;;;;;;4993703;28;20213;-62
2023/03/25 02:09:57;;;;;;;0.40;0.40;;;9.90;99.90;;;;;;4993478;28;20450;-63
2023/03/25 02:12:24;;;;;;;0.30;0.30;;;9.80;99.90;;;;;;4993511;28;20215;-61
2023/03/25 02:14:51;;;;;;;0.30;0.30;;;9.70;99.90;;;;;;4993836;28;20222;-61
2023/03/25 02:17:27;;;;;;;0.40;0.40;;;9.70;99.90;;;;;;4994618;28;20268;-60
2023/03/25 02:20:24;;;;;;;0.30;0.30;;;9.60;99.90;;;;;;4994559;28;20280;-60
2023/03/25 02:23:20;;;;;;;0.40;0.40;;;9.70;99.90;;;;;;4990697;28;20305;-61
2023/03/25 02:26:26;;;;;;;0.27;0.27;;;9.80;99.90;;;;;;4992981;28;20286;-62
2023/03/25 02:29:00;;;;;;;0.50;0.50;;;9.70;99.90;;;;;;4963318;28;20606;-61
2023/03/25 02:31:54;;;;;;;0.40;0.40;;;9.70;99.90;;;;;;4991754;28;20233;-61
2023/03/25 02:34:45;;;;;;;0.25;0.25;;;9.60;99.90;;;;;;4992116;28;20316;-60
2023/03/25 02:37:48;;;;;;;0.40;0.40;;;9.60;99.90;;;;;;4991949;28;20241;-61
2023/03/25 02:40:20;;;;;;;0.38;0.38;;;9.60;99.90;;;;;;4992319;28;20633;-62
2023/03/25 02:42:51;;;;;;;0.30;0.30;;;9.50;99.90;;;;;;4991909;28;20722;-63
2023/03/25 02:45:23;;;;;;;0.52;0.52;;;9.50;99.90;;;;;;4990336;28;20700;-65
2023/03/25 02:47:53;;;;;;;0.37;0.37;;;9.50;99.90;;;;;;4992700;28;20206;-62
2023/03/25 02:50:25;;;;;;;0.43;0.43;;;9.50;99.90;;;;;;4991503;28;20213;-62
2023/03/25 02:52:55;;;;;;;0.10;0.10;;;9.40;99.90;;;;;;4991852;28;20212;-63
2023/03/25 02:55:25;;;;;;;0.20;0.20;;;9.30;99.90;;;;;;4991719;28;20229;-61
2023/03/25 02:57:56;;;;;;;0.30;0.30;;;9.30;99.90;;;;;;4991320;28;20689;-62
2023/03/25 03:00:26;;;;;;;0.70;0.70;;;9.30;99.90;;;;;;4991980;28;20217;-60
2023/03/25 03:02:58;;;;;;;0.50;0.50;;;9.30;99.90;;;;;;4993970;28;20237;-61
2023/03/25 03:05:27;;;;;;;0.32;0.32;;;9.30;99.90;;;;;;4993603;28;20237;-62
2023/03/25 03:08:06;;;;;;;0.30;0.30;;;9.30;99.90;;;;;;4992599;28;20665;-63
2023/03/25 03:10:41;;;;;;;0.67;0.67;;;9.30;99.90;;;;;;4992166;28;20210;-61
2023/03/25 03:13:18;;;;;;;0.43;0.43;;;9.30;99.90;;;;;;4992451;28;20213;-60
2023/03/25 03:15:57;;;;;;;0.40;0.40;;;9.40;99.90;;;;;;4992674;28;20212;-61
2023/03/25 03:18:36;;;;;;;0.40;0.40;;;9.40;99.90;;;;;;4992508;28;20356;-60
2023/03/25 03:21:09;;;;;;;0.47;0.47;;;9.50;99.90;;;;;;4992245;28;20251;-61
2023/03/25 03:23:47;;;;;;;0.50;0.50;;;9.40;99.90;;;;;;4992632;28;20234;-63
2023/03/25 03:26:23;;;;;;;0.60;0.60;;;9.40;99.90;;;;;;4992307;28;20253;-61
2023/03/25 03:28:59;;;;;;;0.73;0.73;;;9.50;99.90;;;;;;4993076;28;20233;-61
2023/03/25 03:31:35;;;;;;;0.40;0.40;;;9.80;99.90;;;;;;4992865;28;20216;-62
2023/03/25 03:34:09;;;;;;;0.85;0.85;;;9.70;99.90;;;;;;4993519;28;20241;-61
2023/03/25 03:36:43;;;;;;;0.70;0.70;;;9.70;99.90;;;;;;4996105;28;20201;-60
2023/03/25 03:39:18;;;;;;;0.80;0.80;;;9.60;99.90;;;;;;4994989;28;20219;-62
2023/03/25 03:41:51;;;;;;;0.83;0.77;;;9.70;99.90;;;;;;4995046;28;20209;-62
2023/03/25 03:44:22;;;;;;;0.70;0.70;;;9.70;99.90;;;;;;4992752;28;20237;-62
2023/03/25 03:46:53;;;;;;;0.60;0.60;;;9.80;99.90;;;;;;4992975;28;20232;-60
2023/03/25 03:49:25;;;;;;;0.70;0.70;;;9.80;99.90;;;;;;4992586;28;20668;-61
2023/03/25 03:51:56;;;;;;;0.90;0.90;;;9.80;99.90;;;;;;4992851;28;20220;-63
2023/03/25 03:54:26;;;;;;;0.98;0.98;;;9.90;99.90;;;;;;4993073;28;20419;-61
2023/03/25 03:57:00;;;;;;;0.80;0.80;;;9.90;99.90;;;;;;4993084;28;20232;-61
2023/03/25 03:59:35;;;;;;;0.60;0.60;;;9.90;99.90;;;;;;4992846;28;20304;-61
2023/03/25 04:02:08;;;;;;;0.80;0.80;;;9.90;99.90;;;;;;4993691;28;20210;-60
2023/03/25 04:04:37;;;;;;;0.80;0.80;;;9.90;99.90;;;;;;4993704;28;20226;-62
2023/03/25 04:07:13;;;;;;;0.90;0.90;;;9.90;99.90;;;;;;4994098;28;20665;-62
2023/03/25 04:09:53;;;;;;;0.90;0.90;;;9.90;99.90;;;;;;4994925;28;20293;-61
2023/03/25 04:12:24;;;;;;;1.20;1.10;;;10.00;99.90;;;;;;4999958;28;20198;-63
2023/03/25 04:14:52;;;;;;;0.82;0.82;;;10.00;99.90;;;;;;5001004;28;20229;-62
2023/03/25 04:17:19;;;;;;;1.10;1.10;;;10.10;99.90;;;;;;5000740;28;20233;-62
2023/03/25 04:19:47;;;;;;;0.80;0.80;;;10.10;99.90;;;;;;5000060;28;20210;-61
2023/03/25 04:22:17;;;;;;;0.90;0.90;;;10.20;99.90;;;;;;5002911;28;20206;-62
2023/03/25 04:24:44;;;;;;;1.27;1.17;;;10.20;99.90;;;;;;5006987;28;20424;-62
2023/03/25 04:27:12;;;;;;;1.13;1.13;;;10.20;99.90;;;;;;4998538;28;20206;-62
2023/03/25 04:29:42;;;;;;;0.60;0.60;;;10.20;99.90;;;;;;4995897;28;20384;-62
2023/03/25 04:32:11;;;;;;;0.90;0.90;;;10.20;99.90;;;;;;4995922;28;20300;-60
2023/03/25 04:34:38;;;;;;;0.87;0.87;;;10.10;99.90;;;;;;4995269;28;20230;-62
2023/03/25 04:37:05;;;;;;;0.80;0.80;;;10.10;99.90;;;;;;4992679;28;20213;-60
2023/03/25 04:39:32;;;;;;;0.80;0.80;;;10.10;99.90;;;;;;4991546;28;20721;-62
2023/03/25 04:42:02;;;;;;;0.70;0.70;;;9.90;99.90;;;;;;4991796;28;20210;-63
2023/03/25 04:44:32;;;;;;;0.70;0.70;;;9.90;99.90;;;;;;4996117;28;20241;-61
2023/03/25 04:47:01;;;;;;;1.00;0.90;;;9.80;99.90;;;;;;4992394;28;20341;-62
2023/03/25 04:49:28;;;;;;;0.60;0.60;;;9.80;99.90;;;;;;4993453;28;20206;-61
2023/03/25 04:51:55;;;;;;;0.80;0.80;;;9.70;99.90;;;;;;4995343;28;20209;-61
2023/03/25 04:54:23;;;;;;;0.70;0.70;;;9.70;99.90;;;;;;4994367;28;20589;-61
2023/03/25 04:56:51;;;;;;;0.80;0.80;;;9.70;99.90;;;;;;4994996;28;20205;-60
2023/03/25 04:59:18;;;;;;;1.08;1.00;;;9.70;99.90;;;;;;4995359;28;20212;-62
2023/03/25 05:01:46;;;;;;;0.80;0.80;;;9.70;99.90;;;;;;4995064;28;20611;-62
2023/03/25 05:04:16;;;;;;;1.10;1.00;;;9.70;99.90;;;;;;4996833;28;20226;-60
2023/03/25 05:06:46;;;;;;;0.97;0.97;;;9.70;99.90;;;;;;4996577;28;20722;-62
2023/03/25 05:09:15;;;;;;;0.85;0.85;;;9.80;99.90;;;;;;4995922;28;20257;-60
2023/03/25 05:11:43;;;;;;;1.23;1.13;;;9.80;99.90;;;;;;4996098;28;20213;-60
2023/03/25 05:14:11;;;;;;;0.77;0.77;;;9.70;99.90;;;;;;4995551;28;20229;-61
2023/03/25 05:16:38;;;;;;;0.80;0.80;;;9.70;99.90;;;;;;4995464;28;20234;-61
2023/03/25 05:19:05;;;;;;;1.10;1.10;;;9.70;99.90;;;;;;4996347;28;20202;-62
2023/03/25 05:21:36;;;;;;;1.20;0.90;;;9.70;99.90;;;;;;4996135;28;20214;-62
2023/03/25 05:24:03;;;;;;;0.67;0.67;;;9.70;99.90;;;;;;4995951;28;20236;-63
2023/03/25 05:26:33;;;;;;;1.00;1.00;;;9.70;99.90;;;;;;4994699;28;20633;-62
2023/03/25 05:29:00;;;;;;;0.60;0.60;;;9.80;99.90;;;;;;4994653;28;20209;-60
2023/03/25 05:31:27;;;;;;;0.77;0.77;;;9.80;99.90;;;;;;4994282;28;20589;-60
2023/03/25 05:33:54;;;;;;;0.98;0.98;;;9.80;99.90;;;;;;4994202;28;20236;-62
2023/03/25 05:36:23;;;;;;;0.90;0.90;;;9.80;99.90;;;;;;4995056;28;20252;-62
2023/03/25 05:38:54;;;;;;;0.90;0.90;;;9.80;99.90;;;;;;4994604;28;20213;-63
2023/03/25 05:41:31;;;;;;;0.80;0.80;;;9.80;99.90;;;;;;4994833;28;20220;-61
2023/03/25 05:43:59;;;;;;;0.80;0.80;;;9.80;99.90;;;;;;4994411;28;20810;-60
2023/03/25 05:46:27;;;;;;;0.70;0.70;;;9.80;99.90;;;;;;4994462;28;20226;-62
2023/03/25 05:48:54;;;;;;;0.70;0.70;;;9.80;99.90;;;;;;4994665;28;20256;-61
2023/03/25 05:51:24;;;;;;;0.90;0.90;;;9.80;99.90;;;;;;4993868;28;20744;-62
2023/03/25 05:53:53;;;;;;;0.60;0.60;;;9.80;99.90;;;;;;4994106;28;20823;-61
2023/03/25 05:56:21;;;;;;;0.70;0.70;;;9.90;99.90;;;;;;4994913;28;20198;-61
2023/03/25 05:58:50;;;;;;;0.63;0.63;;;9.90;99.90;;;;;;4996059;28;20217;-61
2023/03/25 06:01:18;;;;;;;0.77;0.77;;;9.90;99.90;;;;;;4994332;28;20206;-62
2023/03/25 06:03:45;;;;;;;0.80;0.80;;;9.80;99.90;;;;;;4993517;28;20236;-63
2023/03/25 06:06:13;;;;;;;0.87;0.83;;;9.80;99.90;;;;;;4993579;28;20230;-63
2023/03/25 06:08:40;;;;;;;0.77;0.77;;;9.80;99.90;;;;;;4993285;28;20213;-62
2023/03/25 06:11:12;;;;;;;0.60;0.60;;;9.90;99.90;;;;;;4993213;28;20206;-63
2023/03/25 06:13:40;;;;;;;0.85;0.82;;;9.90;99.90;;;;;;4993004;28;20297;-63
2023/03/25 06:16:08;;;;;;;0.70;0.70;;;9.90;99.90;;;;;;4993544;28;20206;-62
2023/03/25 06:18:35;;;;;;;0.70;0.70;;;9.90;99.90;;;;;;4994171;28;20277;-61
2023/03/25 06:21:02;;;;;;;0.67;0.67;;;9.90;99.90;;;;;;4993235;28;20217;-62
2023/03/25 06:23:29;;;;;;;0.47;0.47;;;10.00;99.90;;;;;;4993440;28;20720;-62
2023/03/25 06:25:57;;;;;;;0.70;0.70;;;10.00;99.90;;;;;;4993570;28;20222;-62
2023/03/25 06:28:25;;;;;;;0.53;0.53;;;10.00;99.90;;;;;;4992545;28;20210;-62
2023/03/25 06:30:52;;;;;;;0.60;0.60;;;10.00;99.90;;;;;;4991816;28;20676;-60
2023/03/25 06:33:19;;;;;;;0.70;0.70;;;10.00;99.90;;;;;;4993660;28;20224;-63
2023/03/25 06:35:52;;;;;;;0.88;0.88;;;10.00;99.90;;;;;;4993995;28;20205;-63
2023/03/25 06:38:20;;;;;;;0.60;0.60;;;10.10;99.90;;;;;;4993481;28;20214;-62
2023/03/25 06:40:47;;;;;;;0.47;0.47;;;10.10;99.90;;;;;;4993305;28;20205;-63
2023/03/25 06:43:14;;;;;;;0.50;0.50;;;10.10;99.90;;;;;;4993867;28;20209;-63
2023/03/25 06:45:43;;;;;;;0.40;0.40;;;10.10;99.90;;;;;;4994186;28;20276;-61
2023/03/25 06:48:09;;;;;;;0.60;0.60;;;10.10;99.90;;;;;;4999050;28;20274;-62
2023/03/25 06:50:36;;;;;;;0.68;0.68;;;10.10;99.90;;;;;;5004377;28;20277;-62
2023/03/25 06:53:03;;;;;;;0.45;0.45;;;10.10;99.90;;;;;;4998335;28;20297;-60
2023/03/25 06:55:30;;;;;;;0.60;0.60;;;10.10;99.90;;;;;;4998232;28;20806;-61
2023/03/25 06:57:57;;;;;;;0.50;0.50;;;10.10;99.90;;;;;;4993909;28;20206;-64
2023/03/25 07:00:25;;;;;;;0.43;0.43;;;10.10;99.90;;;;;;4993182;28;20212;-62
2023/03/25 07:02:54;;;;;;;0.60;0.60;;;10.10;99.90;;;;;;4994132;28;20261;-64
2023/03/25 07:05:21;;;;;;;0.40;0.40;;;10.20;99.90;;;;;;4995692;28;20222;-64
2023/03/25 07:07:48;;;;;;;0.60;0.60;;;10.20;99.90;;;;;;4994048;28;20230;-64
2023/03/25 07:10:15;;;;;;;0.73;0.73;;;10.20;99.90;;;;;;4992566;28;20205;-64
2023/03/25 07:12:42;;;;;;;0.40;0.40;;;10.30;99.90;;;;;;4992302;28;20205;-65
2023/03/25 07:15:09;;;;;;;0.50;0.50;;;10.30;99.90;;;;;;4992354;28;20611;-65
2023/03/25 07:17:36;;;;;;;0.60;0.60;;;10.20;99.90;;;;;;4992894;28;20292;-63
2023/03/25 07:20:05;;;;;;;0.40;0.40;;;10.30;99.90;;;;;;4992849;28;20210;-65
2023/03/25 07:22:32;;;;;;;0.67;0.67;;;10.30;99.90;;;;;;4992274;28;20292;-66
2023/03/25 07:24:59;;;;;;;0.45;0.45;;;10.30;99.90;;;;;;4995252;28;20232;-66
2023/03/25 07:27:26;;;;;;;0.40;0.40;;;10.20;99.90;;;;;;4999563;28;20284;-65
2023/03/25 07:29:54;;;;;;;0.43;0.43;;;10.30;99.90;;;;;;4998541;28;20210;-64
2023/03/25 07:32:21;;;;;;;0.63;0.63;;;10.30;99.90;;;;;;4994441;28;20654;-63
2023/03/25 07:34:48;;;;;;;0.50;0.50;;;10.20;99.90;;;;;;4994734;28;20229;-65
2023/03/25 07:37:16;;;;;;;0.55;0.55;;;10.30;99.90;;;;;;4996409;28;20240;-65
2023/03/25 07:39:43;;;;;;;0.70;0.70;;;10.30;99.90;;;;;;4999335;28;20266;-64
2023/03/25 07:42:09;;;;;;;0.60;0.60;;;10.30;99.90;;;;;;5005743;28;20292;-65
2023/03/25 07:44:36;;;;;;;0.70;0.70;;;10.30;99.90;;;;;;5005579;28;20237;-63
2023/03/25 07:47:03;;;;;;;0.40;0.40;;;10.30;99.90;;;;;;5004716;28;20230;-64
2023/03/25 07:49:31;;;;;;;0.55;0.55;;;10.30;99.90;;;;;;4996193;28;20214;-63
2023/03/25 07:51:57;;;;;;;0.55;0.55;;;10.30;99.90;;;;;;4993486;28;20206;-64
2023/03/25 07:54:26;;;;;;;0.60;0.60;;;10.40;99.90;;;;;;4993227;28;20320;-64
2023/03/25 07:56:53;;;;;;;0.70;0.70;;;10.50;99.90;;;;;;4993365;28;20212;-64
2023/03/25 07:59:20;;;;;;;0.50;0.50;;;10.50;99.90;;;;;;4993457;28;20217;-66
2023/03/25 08:01:47;;;;;;;0.50;0.50;;;10.40;99.90;;;;;;4991967;28;20206;-64
2023/03/25 08:04:13;;;;;;;0.53;0.53;;;10.40;99.90;;;;;;4992347;28;20229;-65
2023/03/25 08:06:41;;;;;;;0.50;0.50;;;10.40;99.90;;;;;;4993041;28;20227;-65
2023/03/25 08:09:08;;;;;;;0.60;0.60;;;10.50;99.90;;;;;;4995873;28;20704;-64
2023/03/25 08:11:36;;;;;;;0.57;0.57;;;10.60;99.90;;;;;;4991905;28;20723;-64
2023/03/25 08:14:03;;;;;;;0.60;0.60;;;10.60;99.90;;;;;;4992795;28;20228;-65
2023/03/25 08:16:29;;;;;;;0.80;0.80;;;10.70;99.90;;;;;;4994313;28;20202;-64
2023/03/25 08:18:56;;;;;;;0.70;0.70;;;10.90;99.90;;;;;;4994275;28;20210;-64
2023/03/25 08:21:26;;;;;;;0.70;0.70;;;10.80;99.90;;;;;;4991544;28;20217;-64
2023/03/25 08:23:57;;;;;;;0.50;0.50;;;10.80;99.90;;;;;;4992223;28;20781;-64
2023/03/25 08:26:25;;;;;;;0.60;0.60;;;10.90;99.90;;;;;;4995120;28;20233;-64
2023/03/25 08:28:56;;;;;;;0.70;0.70;;;10.90;99.90;;;;;;4996138;28;20628;-64
2023/03/25 08:31:23;;;;;;;0.60;0.60;;;11.00;99.90;;;;;;4995781;28;20228;-65
2023/03/25 08:33:50;;;;;;;0.40;0.40;;;11.00;99.90;;;;;;4995882;28;20268;-65
2023/03/25 08:36:18;;;;;;;0.70;0.70;;;11.00;99.90;;;;;;4996079;28;20289;-65
2023/03/25 08:38:46;;;;;;;0.70;0.70;;;11.10;99.90;;;;;;4997353;28;20210;-66
2023/03/25 08:41:13;;;;;;;0.60;0.60;;;11.10;99.90;;;;;;4996066;28;20221;-65
2023/03/25 08:43:40;;;;;;;0.73;0.73;;;11.30;99.90;;;;;;4995480;28;20242;-65
2023/03/25 08:46:08;;;;;;;0.60;0.60;;;11.30;99.90;;;;;;4995887;28;20210;-65
2023/03/25 08:48:35;;;;;;;0.52;0.52;;;11.40;99.90;;;;;;4995963;28;20235;-65
2023/03/25 08:51:03;;;;;;;0.77;0.77;;;11.40;99.90;;;;;;4995549;28;20208;-65
2023/03/25 08:53:30;;;;;;;0.70;0.70;;;11.50;99.90;;;;;;4999232;28;20712;-64
2023/03/25 08:55:58;;;;;;;0.80;0.80;;;11.60;99.90;;;;;;4995684;28;20222;-65
2023/03/25 08:58:26;;;;;;;0.40;0.40;;;12.10;99.90;;;;;;4994937;28;20688;-66
2023/03/25 09:00:54;;;;;;;0.60;0.60;;;12.30;99.90;;;;;;4992916;28;20210;-66
2023/03/25 09:03:23;;;;;;;0.53;0.53;;;12.30;99.90;;;;;;4993793;28;20578;-65
2023/03/25 09:05:50;;;;;;;0.50;0.50;;;12.50;99.90;;;;;;4987139;28;20236;-65
2023/03/25 09:08:17;;;;;;;0.60;0.60;;;12.50;99.90;;;;;;4989839;28;20236;-64
2023/03/25 09:10:44;;;;;;;0.68;0.68;;;12.40;99.90;;;;;;4999715;28;20226;-65
2023/03/25 09:13:11;;;;;;;0.50;0.50;;;12.40;99.90;;;;;;5008108;28;20201;-65
2023/03/25 09:15:38;;;;;;;0.50;0.50;;;12.30;99.90;;;;;;5001279;28;20278;-65
2023/03/25 09:18:05;;;;;;;0.50;0.50;;;12.20;99.90;;;;;;5000561;28;20212;-65
2023/03/25 09:20:33;;;;;;;0.50;0.50;;;12.20;99.90;;;;;;5003938;28;20597;-66
2023/03/25 09:23:00;;;;;;;0.30;0.30;;;12.40;99.90;;;;;;5004715;28;20210;-65
2023/03/25 09:25:27;;;;;;;0.90;0.90;;;12.40;99.90;;;;;;5006436;28;20742;-64
2023/03/25 09:27:54;;;;;;;0.50;0.50;;;12.40;99.90;;;;;;5003951;28;20252;-63
2023/03/25 09:30:21;;;;;;;0.77;0.77;;;12.40;99.90;;;;;;5002467;28;20270;-65
2023/03/25 09:32:49;;;;;;;0.52;0.52;;;12.40;99.90;;;;;;5006517;28;20282;-65
2023/03/25 09:35:16;;;;;;;0.45;0.45;;;12.30;99.90;;;;;;5001340;28;20226;-65
2023/03/25 09:37:44;;;;;;;0.60;0.60;;;12.30;99.90;;;;;;5002030;28;20202;-65
2023/03/25 09:40:15;;;;;;;0.55;0.55;;;12.30;99.90;;;;;;5003802;28;20212;-64
2023/03/25 09:42:55;;;;;;;0.80;0.80;;;12.40;99.90;;;;;;5001002;28;20932;-63
2023/03/25 09:45:34;;;;;;;0.85;0.50;;;12.40;99.90;;;;;;4997797;28;20245;-64
2023/03/25 09:48:05;;;;;;;0.52;0.52;;;12.40;99.90;;;;;;5000462;28;20257;-64
2023/03/25 09:50:35;;;;;;;0.50;0.50;;;12.40;99.90;;;;;;5000989;28;20760;-65
2023/03/25 09:53:11;;;;;;;0.75;0.75;;;12.40;99.90;;;;;;5002502;28;20210;-64
2023/03/25 09:55:41;;;;;;;0.80;0.80;;;12.40;99.90;;;;;;5007456;28;20676;-64
2023/03/25 09:58:28;;;;;;;0.73;0.73;;;12.40;99.90;;;;;;5015284;28;20202;-65
2023/03/25 10:01:00;;;;;;;0.75;0.75;;;12.50;99.90;;;;;;5010981;28;20234;-64
2023/03/25 10:03:33;;;;;;;0.80;0.80;;;12.70;99.90;;;;;;5005676;28;20289;-65
2023/03/25 10:06:18;;;;;;;0.70;0.70;;;12.80;99.90;;;;;;5010883;28;20190;-64
2023/03/25 10:09:06;;;;;;;0.80;0.80;;;13.00;99.90;;;;;;5009795;28;20276;-65
2023/03/25 10:11:40;;;;;;;0.80;0.80;;;13.10;99.90;;;;;;4985218;28;20214;-65
2023/03/25 10:14:11;;;;;;;0.80;0.80;;;12.90;99.90;;;;;;4995393;28;20221;-65
2023/03/25 10:16:50;;;;;;;0.68;0.68;;;12.80;99.90;;;;;;4994190;28;20301;-64
2023/03/25 10:19:30;;;;;;;1.55;0.70;;;12.80;99.90;;;;;;4993249;28;20210;-64
2023/03/25 10:22:03;;;;;;;0.60;0.60;;;12.90;99.90;;;;;;4993537;28;20214;-62
2023/03/25 10:24:36;;;;;;;0.70;0.70;;;12.90;99.90;;;;;;4994346;28;20312;-63
2023/03/25 10:27:06;;;;;;;0.80;0.80;;;12.90;99.90;;;;;;4993713;28;20268;-64
2023/03/25 10:29:37;;;;;;;0.50;0.50;;;12.90;99.90;;;;;;4993245;28;20198;-65
2023/03/25 10:32:07;;;;;;;0.60;0.60;;;12.90;99.90;;;;;;4993370;28;20202;-65
2023/03/25 10:34:38;;;;;;;0.60;0.60;;;13.30;99.90;;;;;;4993925;28;20226;-64
2023/03/25 10:37:11;;;;;;;0.85;0.85;;;13.30;99.90;;;;;;4997396;28;20680;-64
2023/03/25 10:39:44;;;;;;;0.52;0.52;;;13.20;99.90;;;;;;4994717;28;20209;-64
2023/03/25 10:42:20;;;;;;;0.60;0.60;;;13.10;99.90;;;;;;4993996;28;20213;-63
2023/03/25 10:44:47;;;;;;;0.45;0.45;;;13.00;99.90;;;;;;4993789;28;20268;-63
2023/03/25 10:47:18;;;;;;;0.35;0.35;;;13.00;99.90;;;;;;4993009;28;20226;-65
2023/03/25 10:49:47;;;;;;;0.40;0.40;;;13.10;99.90;;;;;;4993448;28;20212;-64
2023/03/25 10:52:14;;;;;;;0.63;0.63;;;13.20;99.90;;;;;;4993810;28;20202;-65
2023/03/25 10:54:46;;;;;;;0.50;0.50;;;13.20;99.90;;;;;;4992941;28;20320;-65
2023/03/25 10:57:19;;;;;;;0.53;0.53;;;13.20;99.90;;;;;;4991750;28;20641;-65
2023/03/25 10:59:54;;;;;;;0.50;0.50;;;13.20;99.90;;;;;;4993350;28;20635;-65
2023/03/25 11:02:24;;;;;;;0.52;0.52;;;13.30;99.90;;;;;;4990448;28;20194;-64
2023/03/25 11:04:56;;;;;;;0.90;0.70;;;13.40;99.90;;;;;;4991188;28;20226;-65
2023/03/25 11:07:28;;;;;;;0.50;0.50;;;13.30;99.90;;;;;;4990928;28;20305;-65
2023/03/25 11:10:10;;;;;;;0.60;0.60;;;13.30;99.90;;;;;;4988745;28;20198;-64
2023/03/25 11:12:38;;;;;;;0.70;0.70;;;13.30;99.90;;;;;;4989264;28;20702;-63
2023/03/25 11:15:07;;;;;;;0.52;0.52;;;13.40;99.90;;;;;;4993380;28;20313;-65
2023/03/25 11:17:35;;;;;;;0.55;0.55;;;13.30;99.90;;;;;;4992880;28;20198;-65
2023/03/25 11:20:09;;;;;;;1.30;0.70;;;13.30;99.90;;;;;;4989517;28;20206;-64
2023/03/25 11:22:38;;;;;;;0.70;0.70;;;13.30;99.90;;;;;;4990103;28;20205;-63
2023/03/25 11:25:15;;;;;;;0.50;0.50;;;13.30;99.90;;;;;;4993409;28;20221;-65
2023/03/25 11:27:47;;;;;;;0.60;0.60;;;13.30;99.90;;;;;;4991174;28;20218;-65
2023/03/25 11:30:17;;;;;;;0.73;0.73;;;13.20;99.90;;;;;;4993805;28;20614;-65
2023/03/25 11:32:44;;;;;;;0.70;0.70;;;13.10;99.90;;;;;;4993760;28;20202;-65
2023/03/25 11:35:16;;;;;;;0.68;0.68;;;13.00;99.90;;;;;;4994515;28;20229;-65
2023/03/25 11:37:48;;;;;;;0.50;0.50;;;13.00;99.90;;;;;;5007293;28;20209;-63
2023/03/25 11:40:18;;;;;;;0.40;0.40;;;13.10;99.90;;;;;;4996360;28;20253;-63
2023/03/25 11:42:48;;;;;;;0.60;0.60;;;13.30;99.90;;;;;;4995060;28;20238;-63
2023/03/25 11:45:27;;;;;;;0.40;0.40;;;13.30;99.90;;;;;;4991607;28;20261;-66
2023/03/25 11:47:59;;;;;;;0.60;0.60;;;13.30;99.90;;;;;;4986032;28;20305;-64
2023/03/25 11:50:29;;;;;;;0.60;0.60;;;13.30;99.90;;;;;;4987500;28;20214;-64
2023/03/25 11:52:59;;;;;;;0.50;0.50;;;13.40;99.90;;;;;;4984702;28;20213;-65
2023/03/25 11:55:29;;;;;;;0.67;0.67;;;13.70;99.90;;;;;;4989832;28;20229;-65
2023/03/25 11:57:58;;;;;;;0.43;0.43;;;13.70;99.90;;;;;;4985429;28;20198;-64
2023/03/25 12:00:37;;;;;;;0.60;0.60;;;13.70;99.90;;;;;;4992120;28;20210;-64
2023/03/25 12:03:06;;;;;;;0.70;0.70;;;13.70;99.90;;;;;;4993782;28;20201;-64
2023/03/25 12:05:34;;;;;;;0.57;0.57;;;13.60;99.90;;;;;;4994128;28;20205;-65
2023/03/25 12:08:10;;;;;;;0.70;0.70;;;13.50;99.90;;;;;;4992084;28;20217;-65
2023/03/25 12:10:49;;;;;;;0.70;0.70;;;13.30;99.90;;;;;;4992695;28;20220;-65
2023/03/25 12:13:25;;;;;;;0.80;0.77;;;13.30;99.90;;;;;;4994217;28;20312;-65
2023/03/25 12:15:59;;;;;;;0.85;0.85;;;13.20;99.90;;;;;;4983785;28;20214;-65
2023/03/25 12:18:39;;;;;;;1.00;1.00;;;13.20;99.90;;;;;;4993038;28;20205;-65
2023/03/25 12:21:16;;;;;;;0.70;0.70;;;13.00;99.90;;;;;;4994230;28;20716;-63
2023/03/25 12:23:53;;;;;;;1.00;1.00;;;12.90;99.90;;;;;;4992096;28;20228;-65
2023/03/25 12:26:27;;;;;;;1.45;0.80;;;12.90;99.90;;;;;;4992230;28;20205;-65
2023/03/25 12:29:19;;;;;;;0.75;0.75;;;12.90;99.90;;;;;;4986375;28;20213;-65
2023/03/25 12:32:03;;;;;;;0.63;0.63;;;13.00;99.90;;;;;;4980623;28;20202;-65
2023/03/25 12:34:40;;;;;;;0.60;0.60;;;13.20;99.90;;;;;;4995180;28;20225;-65
2023/03/25 12:37:19;;;;;;;0.73;0.73;;;13.40;99.90;;;;;;4997042;28;20214;-65
2023/03/25 12:39:57;;;;;;;0.60;0.60;;;13.70;99.90;;;;;;4996471;28;20240;-64
2023/03/25 12:42:36;;;;;;;2.60;0.90;;;14.00;99.90;;;;;;4996965;28;20592;-65
2023/03/25 12:45:30;;;;;;;0.70;0.70;;;14.10;99.90;;;;;;4997556;28;20256;-64
2023/03/25 12:48:04;;;;;;;0.63;0.63;;;14.30;99.90;;;;;;5001073;28;20233;-64
2023/03/25 12:50:41;;;;;;;0.90;0.90;;;14.70;99.90;;;;;;4997227;28;20212;-65
2023/03/25 12:53:23;;;;;;;0.60;0.60;;;15.00;99.90;;;;;;5000513;28;20210;-63
2023/03/25 12:56:03;;;;;;;0.63;0.63;;;15.30;99.90;;;;;;5002746;28;20194;-64
2023/03/25 12:58:54;;;;;;;0.60;0.60;;;15.30;99.90;;;;;;5013900;28;20186;-65
2023/03/25 13:01:29;;;;;;;0.70;0.70;;;15.20;99.90;;;;;;5013658;28;20206;-64
2023/03/25 13:04:24;;;;;;;0.87;0.87;;;15.00;99.90;;;;;;5012329;28;20225;-65
2023/03/25 13:06:58;;;;;;;0.52;0.52;;;14.70;99.90;;;;;;5007288;28;20217;-64
2023/03/25 13:09:29;;;;;;;0.80;0.80;;;14.60;99.90;;;;;;4995506;28;20211;-65